Search for airport 
image banner adimage banner adimage banner ad
image banner ad

PANG - Angaur Airstrip

Located in Pwangaur Island, Palau

ICAO - , IATA -

Data provided by Airmate  

General information

Coordinates: N6°54'0" E134°9'0"
Elevation is 20 feet MSL.
Magnetic variation is +1° East
View others Airports in Angaur

Operational data

Special qualification required
Current time UTC:
Current local time:
Weather at : PTRO - Babelthuap/Koror ( 68 km )
METAR: PTRO 082050Z 00000KT 14SM SCT015 BKN110 BKN290 25/24 A2975
TAF: PTRO 081726Z 0818/0918 09005KT P6SM VCSH SCT016 BKN110 TEMPO 0818/0822 -SHRA BKN015
View NOTAMs / SUP AIP / TFR affecting this airport [VIEW]
Communications frequencies: [VIEW]

Runways:

RWY identifierQFULength (ft)Width (ft)SurfaceLDA (ft)
057000150GRAVE
237000150GRAVE

Airport contact information

Address: Pwangaur Island Palau

Satellite view of PANG